Wind from 135 at 4 knots gusting 11

Air temperature 21.7° C
Dewpoint 13.6° C

Last reported at 2014-Apr-23 14:45 UTC.
Time now 2014-Apr-23 15:29 UTC

Location: N 37°53' W 004°48'.
View on Google Maps.

See reports from other nearby stations

Tides Stations Pressure Air Temp Water Temp Dewpoint Dewpoint depression Visibility Wind Speed Wind Dir Waves Ship positions

  
sailing weather and tide predictions

EA7NW Cordoba ES weather

date/time (UTC)wind fromknots sea level pressurealtimeterstation pressurevisibilityair tempwater tempwave heightnotes
2014-Apr-23 14:45 135 4 gusting 11 21.7
2014-Apr-23 14:30 115 2 gusting 11 21.7
2014-Apr-23 14:15 115 5 gusting 14 21.7
2014-Apr-23 07:46 115 0 gusting 2 15.6
2014-Apr-23 07:30 103 0 gusting 2 15.6
2014-Apr-23 07:00 340 15.0
2014-Apr-23 06:45 340 0 gusting 4 15.0
2014-Apr-23 06:00 025 14.4
2014-Apr-23 05:15 070 0 gusting 2 14.4
2014-Apr-23 05:00 070 14.4
2014-Apr-23 04:30 070 0 gusting 2 14.4
2014-Apr-23 03:45 070 0 gusting 2 14.4
2014-Apr-23 03:30 070 14.4
2014-Apr-23 03:15 070 2 gusting 5 14.4
2014-Apr-23 03:00 070 1 gusting 2 14.4
2014-Apr-23 02:45 070 1 gusting 2 14.4
2014-Apr-23 02:15 070 1 gusting 5 13.9
2014-Apr-23 02:00 070 1 gusting 2 13.9
2014-Apr-23 01:45 070 1 gusting 5 14.4
2014-Apr-23 01:30 070 2 gusting 5 13.9
2014-Apr-23 01:15 070 2 gusting 5 13.9
2014-Apr-23 00:45 070 2 gusting 5 13.9
2014-Apr-22 23:45 070 3 gusting 6 14.4
2014-Apr-22 23:30 070 1 gusting 6 15.0
2014-Apr-22 22:45 070 4 gusting 6 15.6
2014-Apr-22 21:45 070 5 gusting 7 16.1
2014-Apr-22 21:00 070 2 gusting 6 17.2
2014-Apr-22 20:30 070 1 gusting 5 17.2
2014-Apr-22 18:45 070 3 gusting 6 19.4
2014-Apr-22 18:30 115 1 gusting 6 20.0
2014-Apr-22 17:45 115 5 gusting 12 20.6
2014-Apr-22 17:30 115 6 gusting 13 21.1
2014-Apr-22 16:30 205 5 gusting 14 21.1
2014-Apr-22 15:30 205 4 gusting 13 20.0
2014-Apr-22 06:00 115 2 gusting 5 12.2
2014-Apr-22 02:30 115 2 gusting 6 13.3
2014-Apr-22 02:15 070 2 gusting 6 12.8
2014-Apr-22 02:00 070 1 gusting 5 13.3
2014-Apr-22 01:30 115 1 gusting 4 13.3
2014-Apr-22 01:15 115 13.3
2014-Apr-22 01:00 160 0 gusting 2 13.3
2014-Apr-22 00:45 025 13.3
2014-Apr-22 00:30 070 13.9
2014-Apr-22 00:15 070 13.9
2014-Apr-22 00:01 070 1 gusting 2 13.9
2014-Apr-21 23:45 070 1 gusting 2 13.9
2014-Apr-21 23:15 070 13.9
2014-Apr-21 23:00 070 0 gusting 2 13.3
2014-Apr-21 22:45 070 13.3
2014-Apr-21 22:15 070 13.3
2014-Apr-21 22:00 070 0 gusting 2 13.3
2014-Apr-21 21:30 070 13.3
2014-Apr-21 21:15 070 12.8
2014-Apr-21 19:31 115 13.3
2014-Apr-21 19:15 115 13.3
2014-Apr-21 18:30 160 1 gusting 4 12.8
2014-Apr-21 18:00 115 1 gusting 6 12.8
2014-Apr-21 17:45 115 2 gusting 6 12.8
2014-Apr-21 17:30 070 0 gusting 4 12.8
2014-Apr-21 17:15 115 12.8
2014-Apr-21 16:45 115 2 gusting 8 12.8
2014-Apr-21 16:30 115 2 gusting 14 13.9
2014-Apr-21 16:15 160 8 gusting 21 15.6
2014-Apr-21 16:00 115 6 gusting 11 17.2
2014-Apr-21 15:15 351 5 gusting 14 18.9
2014-Apr-21 15:00 205 6 gusting 15 18.3